sensor_id;sensor_type;location;lat;lon;timestamp;P1;durP1;ratioP1;P2;durP2;ratioP2
79454;SDS011;68900;52.134;5.420;2024-01-10T00:00:10;4.28;;;1.10;;
79454;SDS011;68900;52.134;5.420;2024-01-10T00:02:36;5.03;;;1.58;;
79454;SDS011;68900;52.134;5.420;2024-01-10T00:05:03;5.28;;;1.05;;
79454;SDS011;68900;52.134;5.420;2024-01-10T00:07:30;3.72;;;1.00;;
79454;SDS011;68900;52.134;5.420;2024-01-10T00:09:56;3.78;;;1.30;;
79454;SDS011;68900;52.134;5.420;2024-01-10T00:12:26;4.88;;;1.50;;
79454;SDS011;68900;52.134;5.420;2024-01-10T00:14:52;4.07;;;1.38;;
79454;SDS011;68900;52.134;5.420;2024-01-10T00:17:18;3.53;;;1.00;;
79454;SDS011;68900;52.134;5.420;2024-01-10T00:19:45;3.13;;;1.08;;
79454;SDS011;68900;52.134;5.420;2024-01-10T00:22:11;4.70;;;1.50;;
79454;SDS011;68900;52.134;5.420;2024-01-10T00:24:38;4.45;;;1.17;;
79454;SDS011;68900;52.134;5.420;2024-01-10T00:27:04;6.60;;;1.20;;
79454;SDS011;68900;52.134;5.420;2024-01-10T00:29:31;5.10;;;1.42;;
79454;SDS011;68900;52.134;5.420;2024-01-10T00:31:58;3.88;;;1.25;;
79454;SDS011;68900;52.134;5.420;2024-01-10T00:34:25;4.45;;;1.40;;
79454;SDS011;68900;52.134;5.420;2024-01-10T00:36:52;5.07;;;1.65;;
79454;SDS011;68900;52.134;5.420;2024-01-10T00:39:19;4.40;;;1.45;;
79454;SDS011;68900;52.134;5.420;2024-01-10T00:41:45;4.15;;;1.23;;
79454;SDS011;68900;52.134;5.420;2024-01-10T00:44:12;3.83;;;1.38;;
79454;SDS011;68900;52.134;5.420;2024-01-10T00:46:38;8.07;;;1.58;;
79454;SDS011;68900;52.134;5.420;2024-01-10T00:49:05;5.25;;;1.50;;
79454;SDS011;68900;52.134;5.420;2024-01-10T00:51:32;6.78;;;1.50;;
79454;SDS011;68900;52.134;5.420;2024-01-10T00:54:01;4.47;;;1.30;;
79454;SDS011;68900;52.134;5.420;2024-01-10T00:56:27;4.70;;;1.48;;
79454;SDS011;68900;52.134;5.420;2024-01-10T00:58:54;5.05;;;1.55;;
79454;SDS011;68900;52.134;5.420;2024-01-10T01:01:24;5.13;;;1.38;;
79454;SDS011;68900;52.134;5.420;2024-01-10T01:03:51;5.53;;;1.58;;
79454;SDS011;68900;52.134;5.420;2024-01-10T01:06:20;4.35;;;1.63;;
79454;SDS011;68900;52.134;5.420;2024-01-10T01:08:47;4.70;;;1.45;;
79454;SDS011;68900;52.134;5.420;2024-01-10T01:11:13;3.50;;;1.38;;
79454;SDS011;68900;52.134;5.420;2024-01-10T01:13:40;4.22;;;1.58;;
79454;SDS011;68900;52.134;5.420;2024-01-10T01:16:07;4.82;;;1.45;;
79454;SDS011;68900;52.134;5.420;2024-01-10T01:18:34;3.95;;;1.63;;
79454;SDS011;68900;52.134;5.420;2024-01-10T01:21:00;3.85;;;1.27;;
79454;SDS011;68900;52.134;5.420;2024-01-10T01:23:29;4.55;;;1.60;;
79454;SDS011;68900;52.134;5.420;2024-01-10T01:26:07;4.68;;;1.80;;
79454;SDS011;68900;52.134;5.420;2024-01-10T01:28:34;5.00;;;1.65;;
79454;SDS011;68900;52.134;5.420;2024-01-10T01:31:00;6.47;;;1.92;;
79454;SDS011;68900;52.134;5.420;2024-01-10T01:33:27;5.15;;;1.70;;
79454;SDS011;68900;52.134;5.420;2024-01-10T01:35:54;7.30;;;1.58;;
79454;SDS011;68900;52.134;5.420;2024-01-10T01:38:21;5.18;;;1.38;;
79454;SDS011;68900;52.134;5.420;2024-01-10T01:40:48;5.00;;;1.60;;
79454;SDS011;68900;52.134;5.420;2024-01-10T01:43:18;5.60;;;1.48;;
79454;SDS011;68900;52.134;5.420;2024-01-10T01:45:45;4.57;;;1.48;;
79454;SDS011;68900;52.134;5.420;2024-01-10T01:48:12;3.88;;;1.35;;
79454;SDS011;68900;52.134;5.420;2024-01-10T01:50:39;6.07;;;1.83;;
79454;SDS011;68900;52.134;5.420;2024-01-10T01:53:07;4.97;;;0.90;;
79454;SDS011;68900;52.134;5.420;2024-01-10T01:55:34;4.13;;;1.20;;
79454;SDS011;68900;52.134;5.420;2024-01-10T01:58:01;4.32;;;1.63;;
79454;SDS011;68900;52.134;5.420;2024-01-10T02:00:28;3.65;;;1.40;;
79454;SDS011;68900;52.134;5.420;2024-01-10T02:02:58;5.07;;;1.23;;
79454;SDS011;68900;52.134;5.420;2024-01-10T02:05:25;4.80;;;1.70;;
79454;SDS011;68900;52.134;5.420;2024-01-10T02:07:52;4.82;;;1.70;;
79454;SDS011;68900;52.134;5.420;2024-01-10T02:10:19;4.03;;;1.50;;
79454;SDS011;68900;52.134;5.420;2024-01-10T02:12:45;3.83;;;1.25;;
79454;SDS011;68900;52.134;5.420;2024-01-10T02:15:12;3.97;;;1.58;;
79454;SDS011;68900;52.134;5.420;2024-01-10T02:17:40;6.13;;;2.00;;
79454;SDS011;68900;52.134;5.420;2024-01-10T02:20:07;6.68;;;1.67;;
79454;SDS011;68900;52.134;5.420;2024-01-10T02:22:38;4.75;;;1.55;;
79454;SDS011;68900;52.134;5.420;2024-01-10T02:25:05;4.72;;;1.58;;
79454;SDS011;68900;52.134;5.420;2024-01-10T02:27:34;3.83;;;1.02;;
79454;SDS011;68900;52.134;5.420;2024-01-10T02:30:04;3.22;;;1.02;;
79454;SDS011;68900;52.134;5.420;2024-01-10T02:32:31;4.18;;;1.55;;
79454;SDS011;68900;52.134;5.420;2024-01-10T02:34:58;4.40;;;1.63;;
79454;SDS011;68900;52.134;5.420;2024-01-10T02:37:25;4.25;;;1.38;;
79454;SDS011;68900;52.134;5.420;2024-01-10T02:39:52;5.18;;;1.67;;
79454;SDS011;68900;52.134;5.420;2024-01-10T02:42:18;5.75;;;1.52;;
79454;SDS011;68900;52.134;5.420;2024-01-10T02:44:47;5.07;;;1.63;;
79454;SDS011;68900;52.134;5.420;2024-01-10T02:47:13;5.07;;;1.80;;
79454;SDS011;68900;52.134;5.420;2024-01-10T02:49:40;5.80;;;1.58;;
79454;SDS011;68900;52.134;5.420;2024-01-10T02:52:07;3.85;;;1.48;;
79454;SDS011;68900;52.134;5.420;2024-01-10T02:54:33;5.65;;;1.60;;
79454;SDS011;68900;52.134;5.420;2024-01-10T02:57:00;5.20;;;1.88;;
79454;SDS011;68900;52.134;5.420;2024-01-10T02:59:26;5.75;;;1.65;;
79454;SDS011;68900;52.134;5.420;2024-01-10T03:01:53;5.03;;;1.33;;
79454;SDS011;68900;52.134;5.420;2024-01-10T03:04:19;5.97;;;1.98;;
79454;SDS011;68900;52.134;5.420;2024-01-10T03:06:46;4.90;;;1.65;;
79454;SDS011;68900;52.134;5.420;2024-01-10T03:09:12;5.97;;;1.42;;
79454;SDS011;68900;52.134;5.420;2024-01-10T03:11:41;5.35;;;1.67;;
79454;SDS011;68900;52.134;5.420;2024-01-10T03:14:08;5.03;;;1.40;;
79454;SDS011;68900;52.134;5.420;2024-01-10T03:16:36;4.95;;;1.55;;
79454;SDS011;68900;52.134;5.420;2024-01-10T03:19:03;5.65;;;1.88;;
79454;SDS011;68900;52.134;5.420;2024-01-10T03:21:33;6.05;;;2.28;;
79454;SDS011;68900;52.134;5.420;2024-01-10T03:24:00;4.82;;;1.98;;
79454;SDS011;68900;52.134;5.420;2024-01-10T03:26:27;4.45;;;1.70;;
79454;SDS011;68900;52.134;5.420;2024-01-10T03:28:57;5.88;;;1.83;;
79454;SDS011;68900;52.134;5.420;2024-01-10T03:31:24;6.00;;;1.58;;
79454;SDS011;68900;52.134;5.420;2024-01-10T03:33:51;5.95;;;1.85;;
79454;SDS011;68900;52.134;5.420;2024-01-10T03:36:17;3.92;;;1.45;;
79454;SDS011;68900;52.134;5.420;2024-01-10T03:38:44;4.30;;;1.65;;
79454;SDS011;68900;52.134;5.420;2024-01-10T03:41:14;5.80;;;2.03;;
79454;SDS011;68900;52.134;5.420;2024-01-10T03:43:42;5.45;;;1.70;;
79454;SDS011;68900;52.134;5.420;2024-01-10T03:46:12;3.72;;;1.30;;
79454;SDS011;68900;52.134;5.420;2024-01-10T03:48:39;7.22;;;1.48;;
79454;SDS011;68900;52.134;5.420;2024-01-10T03:51:18;5.35;;;1.70;;
79454;SDS011;68900;52.134;5.420;2024-01-10T03:53:45;3.75;;;1.13;;
79454;SDS011;68900;52.134;5.420;2024-01-10T03:56:12;5.82;;;1.58;;
79454;SDS011;68900;52.134;5.420;2024-01-10T03:58:39;4.75;;;1.73;;
79454;SDS011;68900;52.134;5.420;2024-01-10T04:01:06;5.78;;;1.90;;
79454;SDS011;68900;52.134;5.420;2024-01-10T04:03:35;4.00;;;1.45;;
79454;SDS011;68900;52.134;5.420;2024-01-10T04:06:02;4.47;;;1.67;;
79454;SDS011;68900;52.134;5.420;2024-01-10T04:08:29;6.07;;;1.50;;
79454;SDS011;68900;52.134;5.420;2024-01-10T04:10:56;5.90;;;1.88;;
79454;SDS011;68900;52.134;5.420;2024-01-10T04:13:25;4.68;;;1.50;;
79454;SDS011;68900;52.134;5.420;2024-01-10T04:15:54;5.28;;;1.80;;
79454;SDS011;68900;52.134;5.420;2024-01-10T04:18:20;6.40;;;1.88;;
79454;SDS011;68900;52.134;5.420;2024-01-10T04:20:48;3.53;;;1.40;;
79454;SDS011;68900;52.134;5.420;2024-01-10T04:23:15;5.35;;;1.58;;
79454;SDS011;68900;52.134;5.420;2024-01-10T04:25:42;6.80;;;1.70;;
79454;SDS011;68900;52.134;5.420;2024-01-10T04:28:08;6.32;;;1.58;;
79454;SDS011;68900;52.134;5.420;2024-01-10T04:30:35;5.32;;;1.40;;
79454;SDS011;68900;52.134;5.420;2024-01-10T04:33:01;5.15;;;1.75;;
79454;SDS011;68900;52.134;5.420;2024-01-10T04:35:28;6.10;;;2.03;;
79454;SDS011;68900;52.134;5.420;2024-01-10T04:37:55;5.85;;;1.70;;
79454;SDS011;68900;52.134;5.420;2024-01-10T04:40:21;5.53;;;1.73;;
79454;SDS011;68900;52.134;5.420;2024-01-10T04:42:51;4.82;;;1.45;;
79454;SDS011;68900;52.134;5.420;2024-01-10T04:45:17;8.07;;;2.10;;
79454;SDS011;68900;52.134;5.420;2024-01-10T04:47:44;5.53;;;1.83;;
79454;SDS011;68900;52.134;5.420;2024-01-10T04:50:13;4.65;;;1.77;;
79454;SDS011;68900;52.134;5.420;2024-01-10T04:52:40;4.68;;;1.83;;
79454;SDS011;68900;52.134;5.420;2024-01-10T04:55:10;5.00;;;1.90;;
79454;SDS011;68900;52.134;5.420;2024-01-10T04:57:37;6.35;;;2.03;;
79454;SDS011;68900;52.134;5.420;2024-01-10T05:00:06;5.18;;;1.80;;
79454;SDS011;68900;52.134;5.420;2024-01-10T05:02:33;5.50;;;1.75;;
79454;SDS011;68900;52.134;5.420;2024-01-10T05:05:02;5.35;;;1.35;;
79454;SDS011;68900;52.134;5.420;2024-01-10T05:07:32;9.13;;;2.30;;
79454;SDS011;68900;52.134;5.420;2024-01-10T05:09:58;4.72;;;1.70;;
79454;SDS011;68900;52.134;5.420;2024-01-10T05:12:25;7.70;;;2.28;;
79454;SDS011;68900;52.134;5.420;2024-01-10T05:14:52;5.20;;;1.70;;
79454;SDS011;68900;52.134;5.420;2024-01-10T05:17:18;6.22;;;2.05;;
79454;SDS011;68900;52.134;5.420;2024-01-10T05:19:45;3.22;;;1.20;;
79454;SDS011;68900;52.134;5.420;2024-01-10T05:22:12;5.78;;;1.60;;
79454;SDS011;68900;52.134;5.420;2024-01-10T05:24:39;5.05;;;2.03;;
79454;SDS011;68900;52.134;5.420;2024-01-10T05:27:05;5.03;;;1.75;;
79454;SDS011;68900;52.134;5.420;2024-01-10T05:29:32;7.65;;;2.10;;
79454;SDS011;68900;52.134;5.420;2024-01-10T05:32:04;5.22;;;2.00;;
79454;SDS011;68900;52.134;5.420;2024-01-10T05:34:35;4.07;;;1.00;;
79454;SDS011;68900;52.134;5.420;2024-01-10T05:37:01;5.43;;;2.00;;
79454;SDS011;68900;52.134;5.420;2024-01-10T05:39:28;6.30;;;2.38;;
79454;SDS011;68900;52.134;5.420;2024-01-10T05:41:57;3.92;;;1.33;;
79454;SDS011;68900;52.134;5.420;2024-01-10T05:44:23;5.50;;;2.17;;
79454;SDS011;68900;52.134;5.420;2024-01-10T05:46:50;5.25;;;1.70;;
79454;SDS011;68900;52.134;5.420;2024-01-10T05:49:18;7.60;;;1.52;;
79454;SDS011;68900;52.134;5.420;2024-01-10T05:51:44;4.95;;;1.63;;
79454;SDS011;68900;52.134;5.420;2024-01-10T05:54:11;4.57;;;1.60;;
79454;SDS011;68900;52.134;5.420;2024-01-10T05:56:38;6.82;;;2.50;;
79454;SDS011;68900;52.134;5.420;2024-01-10T05:59:05;5.32;;;1.80;;
79454;SDS011;68900;52.134;5.420;2024-01-10T06:01:31;6.45;;;2.30;;
79454;SDS011;68900;52.134;5.420;2024-01-10T06:03:58;4.80;;;1.73;;
79454;SDS011;68900;52.134;5.420;2024-01-10T06:06:24;4.80;;;2.00;;
79454;SDS011;68900;52.134;5.420;2024-01-10T06:08:51;4.00;;;1.15;;
79454;SDS011;68900;52.134;5.420;2024-01-10T06:11:17;7.15;;;2.20;;
79454;SDS011;68900;52.134;5.420;2024-01-10T06:13:45;5.05;;;2.03;;
79454;SDS011;68900;52.134;5.420;2024-01-10T06:16:22;6.13;;;2.33;;
79454;SDS011;68900;52.134;5.420;2024-01-10T06:18:48;5.15;;;1.73;;
79454;SDS011;68900;52.134;5.420;2024-01-10T06:21:15;5.47;;;1.75;;
79454;SDS011;68900;52.134;5.420;2024-01-10T06:23:42;4.75;;;1.67;;
79454;SDS011;68900;52.134;5.420;2024-01-10T06:26:09;6.22;;;1.92;;
79454;SDS011;68900;52.134;5.420;2024-01-10T06:28:36;5.43;;;1.95;;
79454;SDS011;68900;52.134;5.420;2024-01-10T06:31:02;5.13;;;1.92;;
79454;SDS011;68900;52.134;5.420;2024-01-10T06:33:33;5.70;;;2.10;;
79454;SDS011;68900;52.134;5.420;2024-01-10T06:35:59;6.25;;;2.00;;
79454;SDS011;68900;52.134;5.420;2024-01-10T06:38:26;5.80;;;1.77;;
79454;SDS011;68900;52.134;5.420;2024-01-10T06:40:53;5.25;;;2.42;;
79454;SDS011;68900;52.134;5.420;2024-01-10T06:43:19;6.60;;;2.63;;
79454;SDS011;68900;52.134;5.420;2024-01-10T06:45:46;7.30;;;2.22;;
79454;SDS011;68900;52.134;5.420;2024-01-10T06:48:14;8.88;;;2.83;;
79454;SDS011;68900;52.134;5.420;2024-01-10T06:50:41;5.03;;;1.95;;
79454;SDS011;68900;52.134;5.420;2024-01-10T06:53:08;6.13;;;2.10;;
79454;SDS011;68900;52.134;5.420;2024-01-10T06:55:34;6.03;;;2.47;;
79454;SDS011;68900;52.134;5.420;2024-01-10T06:58:01;7.10;;;2.00;;
79454;SDS011;68900;52.134;5.420;2024-01-10T07:00:29;10.00;;;2.53;;
79454;SDS011;68900;52.134;5.420;2024-01-10T07:02:56;5.65;;;2.30;;
79454;SDS011;68900;52.134;5.420;2024-01-10T07:05:22;6.30;;;2.47;;
79454;SDS011;68900;52.134;5.420;2024-01-10T07:07:49;8.07;;;2.70;;
79454;SDS011;68900;52.134;5.420;2024-01-10T07:10:18;9.63;;;3.55;;
79454;SDS011;68900;52.134;5.420;2024-01-10T07:12:45;8.02;;;3.53;;
79454;SDS011;68900;52.134;5.420;2024-01-10T07:15:11;8.40;;;2.92;;
79454;SDS011;68900;52.134;5.420;2024-01-10T07:17:38;6.53;;;2.42;;
79454;SDS011;68900;52.134;5.420;2024-01-10T07:20:06;7.45;;;2.42;;
79454;SDS011;68900;52.134;5.420;2024-01-10T07:22:38;7.55;;;2.58;;
79454;SDS011;68900;52.134;5.420;2024-01-10T07:25:10;6.65;;;2.25;;
79454;SDS011;68900;52.134;5.420;2024-01-10T07:27:43;7.45;;;2.50;;
79454;SDS011;68900;52.134;5.420;2024-01-10T07:30:10;5.93;;;2.15;;
79454;SDS011;68900;52.134;5.420;2024-01-10T07:32:41;6.72;;;2.35;;
79454;SDS011;68900;52.134;5.420;2024-01-10T07:35:12;5.85;;;2.17;;
79454;SDS011;68900;52.134;5.420;2024-01-10T07:37:40;6.07;;;2.15;;
79454;SDS011;68900;52.134;5.420;2024-01-10T07:40:09;6.00;;;1.90;;
79454;SDS011;68900;52.134;5.420;2024-01-10T07:42:37;6.28;;;2.35;;
79454;SDS011;68900;52.134;5.420;2024-01-10T07:45:04;5.63;;;2.05;;
79454;SDS011;68900;52.134;5.420;2024-01-10T07:47:31;5.57;;;1.98;;
79454;SDS011;68900;52.134;5.420;2024-01-10T07:50:04;8.98;;;2.55;;
79454;SDS011;68900;52.134;5.420;2024-01-10T07:52:35;12.63;;;2.60;;
79454;SDS011;68900;52.134;5.420;2024-01-10T07:55:02;7.05;;;2.00;;
79454;SDS011;68900;52.134;5.420;2024-01-10T07:57:33;6.95;;;2.53;;
79454;SDS011;68900;52.134;5.420;2024-01-10T08:00:06;7.47;;;2.50;;
79454;SDS011;68900;52.134;5.420;2024-01-10T08:02:37;8.40;;;2.63;;
79454;SDS011;68900;52.134;5.420;2024-01-10T08:05:05;8.63;;;2.50;;
79454;SDS011;68900;52.134;5.420;2024-01-10T08:07:39;6.40;;;1.95;;
79454;SDS011;68900;52.134;5.420;2024-01-10T08:12:33;7.32;;;2.45;;
79454;SDS011;68900;52.134;5.420;2024-01-10T08:15:00;7.75;;;2.15;;
79454;SDS011;68900;52.134;5.420;2024-01-10T08:17:27;5.53;;;2.08;;
79454;SDS011;68900;52.134;5.420;2024-01-10T08:19:56;7.82;;;2.20;;
79454;SDS011;68900;52.134;5.420;2024-01-10T08:22:23;7.45;;;2.45;;
79454;SDS011;68900;52.134;5.420;2024-01-10T08:24:59;9.40;;;2.30;;
79454;SDS011;68900;52.134;5.420;2024-01-10T08:27:29;7.00;;;2.33;;
79454;SDS011;68900;52.134;5.420;2024-01-10T08:29:56;6.75;;;2.58;;
79454;SDS011;68900;52.134;5.420;2024-01-10T08:32:22;6.32;;;2.33;;
79454;SDS011;68900;52.134;5.420;2024-01-10T08:34:49;7.07;;;2.22;;
79454;SDS011;68900;52.134;5.420;2024-01-10T08:59:42;8.52;;;3.15;;
79454;SDS011;68900;52.134;5.420;2024-01-10T09:02:08;6.85;;;2.88;;
79454;SDS011;68900;52.134;5.420;2024-01-10T09:04:35;6.60;;;2.33;;
79454;SDS011;68900;52.134;5.420;2024-01-10T09:07:03;7.45;;;2.28;;
79454;SDS011;68900;52.134;5.420;2024-01-10T09:09:30;6.10;;;2.75;;
79454;SDS011;68900;52.134;5.420;2024-01-10T09:11:57;7.40;;;2.30;;
79454;SDS011;68900;52.134;5.420;2024-01-10T09:14:23;6.78;;;2.17;;
79454;SDS011;68900;52.134;5.420;2024-01-10T09:16:51;5.15;;;1.55;;
79454;SDS011;68900;52.134;5.420;2024-01-10T09:19:18;5.68;;;2.10;;
79454;SDS011;68900;52.134;5.420;2024-01-10T09:21:45;8.23;;;2.78;;
79454;SDS011;68900;52.134;5.420;2024-01-10T09:24:12;5.70;;;2.40;;
79454;SDS011;68900;52.134;5.420;2024-01-10T09:26:54;6.47;;;2.30;;
79454;SDS011;68900;52.134;5.420;2024-01-10T09:29:23;6.18;;;1.98;;
79454;SDS011;68900;52.134;5.420;2024-01-10T09:31:52;8.65;;;2.05;;
79454;SDS011;68900;52.134;5.420;2024-01-10T09:34:19;7.40;;;2.65;;
79454;SDS011;68900;52.134;5.420;2024-01-10T09:36:46;7.15;;;2.60;;
79454;SDS011;68900;52.134;5.420;2024-01-10T09:39:13;6.88;;;2.55;;
79454;SDS011;68900;52.134;5.420;2024-01-10T09:41:43;5.65;;;1.73;;
79454;SDS011;68900;52.134;5.420;2024-01-10T09:44:16;5.97;;;2.28;;
79454;SDS011;68900;52.134;5.420;2024-01-10T09:46:46;7.25;;;2.60;;
79454;SDS011;68900;52.134;5.420;2024-01-10T09:49:15;8.18;;;2.25;;
79454;SDS011;68900;52.134;5.420;2024-01-10T09:51:42;7.30;;;2.13;;
79454;SDS011;68900;52.134;5.420;2024-01-10T09:54:13;7.15;;;2.42;;
79454;SDS011;68900;52.134;5.420;2024-01-10T09:56:42;7.97;;;2.42;;
79454;SDS011;68900;52.134;5.420;2024-01-10T09:59:09;6.00;;;2.38;;
79454;SDS011;68900;52.134;5.420;2024-01-10T10:01:39;9.82;;;2.95;;
79454;SDS011;68900;52.134;5.420;2024-01-10T10:04:07;6.13;;;2.45;;
79454;SDS011;68900;52.134;5.420;2024-01-10T10:06:37;4.45;;;1.67;;
79454;SDS011;68900;52.134;5.420;2024-01-10T10:09:04;6.72;;;2.20;;
79454;SDS011;68900;52.134;5.420;2024-01-10T10:11:34;7.50;;;2.83;;
79454;SDS011;68900;52.134;5.420;2024-01-10T10:14:13;9.90;;;3.13;;
79454;SDS011;68900;52.134;5.420;2024-01-10T10:16:42;4.50;;;2.10;;
79454;SDS011;68900;52.134;5.420;2024-01-10T10:19:11;8.07;;;2.75;;
79454;SDS011;68900;52.134;5.420;2024-01-10T10:21:49;9.30;;;2.72;;
79454;SDS011;68900;52.134;5.420;2024-01-10T10:24:16;7.30;;;2.60;;
79454;SDS011;68900;52.134;5.420;2024-01-10T10:26:46;4.55;;;2.03;;
79454;SDS011;68900;52.134;5.420;2024-01-10T10:29:12;7.32;;;2.53;;
79454;SDS011;68900;52.134;5.420;2024-01-10T10:31:46;7.82;;;3.30;;
79454;SDS011;68900;52.134;5.420;2024-01-10T10:34:14;6.75;;;2.58;;
79454;SDS011;68900;52.134;5.420;2024-01-10T10:36:47;8.43;;;2.75;;
79454;SDS011;68900;52.134;5.420;2024-01-10T10:39:17;6.15;;;2.33;;
79454;SDS011;68900;52.134;5.420;2024-01-10T10:41:43;6.95;;;2.92;;
79454;SDS011;68900;52.134;5.420;2024-01-10T10:46:41;5.85;;;2.50;;
79454;SDS011;68900;52.134;5.420;2024-01-10T10:49:12;6.13;;;3.13;;
79454;SDS011;68900;52.134;5.420;2024-01-10T10:51:40;7.60;;;2.58;;
79454;SDS011;68900;52.134;5.420;2024-01-10T10:54:07;7.57;;;2.72;;
79454;SDS011;68900;52.134;5.420;2024-01-10T10:56:35;8.05;;;3.55;;
79454;SDS011;68900;52.134;5.420;2024-01-10T10:59:06;7.93;;;2.80;;
79454;SDS011;68900;52.134;5.420;2024-01-10T11:01:35;8.07;;;3.05;;
79454;SDS011;68900;52.134;5.420;2024-01-10T11:04:01;8.35;;;2.92;;
79454;SDS011;68900;52.134;5.420;2024-01-10T11:06:30;6.07;;;2.63;;
79454;SDS011;68900;52.134;5.420;2024-01-10T11:09:05;7.35;;;2.60;;
79454;SDS011;68900;52.134;5.420;2024-01-10T11:14:30;9.85;;;3.05;;
79454;SDS011;68900;52.134;5.420;2024-01-10T11:20:50;6.78;;;2.42;;
79454;SDS011;68900;52.134;5.420;2024-01-10T11:25:59;5.65;;;2.00;;
79454;SDS011;68900;52.134;5.420;2024-01-10T11:28:26;13.27;;;2.78;;
79454;SDS011;68900;52.134;5.420;2024-01-10T11:30:54;6.78;;;2.63;;
79454;SDS011;68900;52.134;5.420;2024-01-10T11:33:24;8.73;;;2.67;;
79454;SDS011;68900;52.134;5.420;2024-01-10T11:36:05;11.43;;;2.80;;
79454;SDS011;68900;52.134;5.420;2024-01-10T11:38:47;9.88;;;3.40;;
79454;SDS011;68900;52.134;5.420;2024-01-10T11:41:24;9.77;;;3.17;;
79454;SDS011;68900;52.134;5.420;2024-01-10T11:46:42;8.82;;;3.40;;
79454;SDS011;68900;52.134;5.420;2024-01-10T11:49:14;7.75;;;2.72;;
79454;SDS011;68900;52.134;5.420;2024-01-10T11:51:48;13.13;;;3.15;;
79454;SDS011;68900;52.134;5.420;2024-01-10T11:57:10;7.72;;;3.20;;
79454;SDS011;68900;52.134;5.420;2024-01-10T11:59:38;5.90;;;2.65;;
79454;SDS011;68900;52.134;5.420;2024-01-10T12:02:07;9.52;;;2.75;;
79454;SDS011;68900;52.134;5.420;2024-01-10T12:04:34;8.90;;;2.97;;
79454;SDS011;68900;52.134;5.420;2024-01-10T12:07:13;8.52;;;2.60;;
79454;SDS011;68900;52.134;5.420;2024-01-10T12:09:40;7.88;;;2.85;;
79454;SDS011;68900;52.134;5.420;2024-01-10T12:12:08;9.18;;;3.10;;
79454;SDS011;68900;52.134;5.420;2024-01-10T12:14:36;6.80;;;2.38;;
79454;SDS011;68900;52.134;5.420;2024-01-10T12:17:03;6.30;;;2.78;;
79454;SDS011;68900;52.134;5.420;2024-01-10T12:19:31;6.75;;;3.03;;
79454;SDS011;68900;52.134;5.420;2024-01-10T12:21:57;8.18;;;2.78;;
79454;SDS011;68900;52.134;5.420;2024-01-10T12:24:24;8.88;;;3.05;;
79454;SDS011;68900;52.134;5.420;2024-01-10T12:26:55;7.82;;;2.90;;
79454;SDS011;68900;52.134;5.420;2024-01-10T12:29:22;9.00;;;3.22;;
79454;SDS011;68900;52.134;5.420;2024-01-10T12:31:51;7.68;;;3.20;;
79454;SDS011;68900;52.134;5.420;2024-01-10T12:34:18;9.57;;;3.28;;
79454;SDS011;68900;52.134;5.420;2024-01-10T12:36:47;10.82;;;3.22;;
79454;SDS011;68900;52.134;5.420;2024-01-10T12:39:14;9.57;;;2.80;;
79454;SDS011;68900;52.134;5.420;2024-01-10T12:41:41;8.45;;;2.90;;
79454;SDS011;68900;52.134;5.420;2024-01-10T12:44:07;8.32;;;3.35;;
79454;SDS011;68900;52.134;5.420;2024-01-10T12:46:47;6.43;;;2.50;;
79454;SDS011;68900;52.134;5.420;2024-01-10T12:49:18;10.90;;;3.95;;
79454;SDS011;68900;52.134;5.420;2024-01-10T12:51:44;8.82;;;2.95;;
79454;SDS011;68900;52.134;5.420;2024-01-10T12:54:16;7.18;;;2.88;;
79454;SDS011;68900;52.134;5.420;2024-01-10T12:56:43;7.85;;;2.97;;
79454;SDS011;68900;52.134;5.420;2024-01-10T12:59:12;9.02;;;3.40;;
79454;SDS011;68900;52.134;5.420;2024-01-10T13:01:40;8.38;;;2.92;;
79454;SDS011;68900;52.134;5.420;2024-01-10T13:04:08;9.10;;;2.90;;
79454;SDS011;68900;52.134;5.420;2024-01-10T13:06:35;7.45;;;3.30;;
79454;SDS011;68900;52.134;5.420;2024-01-10T13:09:02;8.43;;;3.35;;
79454;SDS011;68900;52.134;5.420;2024-01-10T13:11:29;8.85;;;2.97;;
79454;SDS011;68900;52.134;5.420;2024-01-10T13:13:56;11.10;;;3.50;;
79454;SDS011;68900;52.134;5.420;2024-01-10T13:16:23;7.57;;;3.70;;
79454;SDS011;68900;52.134;5.420;2024-01-10T13:18:50;8.77;;;3.38;;
79454;SDS011;68900;52.134;5.420;2024-01-10T13:21:17;8.20;;;2.90;;
79454;SDS011;68900;52.134;5.420;2024-01-10T13:23:43;8.45;;;3.20;;
79454;SDS011;68900;52.134;5.420;2024-01-10T13:26:18;12.23;;;3.08;;
79454;SDS011;68900;52.134;5.420;2024-01-10T13:28:45;8.60;;;2.97;;
79454;SDS011;68900;52.134;5.420;2024-01-10T13:31:12;7.70;;;2.92;;
79454;SDS011;68900;52.134;5.420;2024-01-10T13:33:44;9.60;;;3.85;;
79454;SDS011;68900;52.134;5.420;2024-01-10T13:36:14;9.73;;;3.45;;
79454;SDS011;68900;52.134;5.420;2024-01-10T13:38:40;12.77;;;3.58;;
79454;SDS011;68900;52.134;5.420;2024-01-10T13:41:07;8.80;;;3.45;;
79454;SDS011;68900;52.134;5.420;2024-01-10T13:43:34;8.82;;;3.63;;
79454;SDS011;68900;52.134;5.420;2024-01-10T13:46:00;8.55;;;3.15;;
79454;SDS011;68900;52.134;5.420;2024-01-10T13:48:34;9.57;;;3.17;;
79454;SDS011;68900;52.134;5.420;2024-01-10T13:51:01;11.07;;;3.75;;
79454;SDS011;68900;52.134;5.420;2024-01-10T13:53:27;9.45;;;3.15;;
79454;SDS011;68900;52.134;5.420;2024-01-10T13:55:54;9.82;;;3.20;;
79454;SDS011;68900;52.134;5.420;2024-01-10T13:58:21;9.10;;;3.15;;
79454;SDS011;68900;52.134;5.420;2024-01-10T14:00:49;4.47;;;1.80;;
79454;SDS011;68900;52.134;5.420;2024-01-10T14:03:16;9.57;;;2.50;;
79454;SDS011;68900;52.134;5.420;2024-01-10T14:05:43;8.10;;;2.72;;
79454;SDS011;68900;52.134;5.420;2024-01-10T14:08:10;8.07;;;3.35;;
79454;SDS011;68900;52.134;5.420;2024-01-10T14:10:37;8.95;;;3.28;;
79454;SDS011;68900;52.134;5.420;2024-01-10T14:13:08;6.63;;;2.92;;
79454;SDS011;68900;52.134;5.420;2024-01-10T14:15:37;9.80;;;3.42;;
79454;SDS011;68900;52.134;5.420;2024-01-10T14:18:04;7.93;;;2.75;;
79454;SDS011;68900;52.134;5.420;2024-01-10T14:20:31;6.97;;;3.00;;
79454;SDS011;68900;52.134;5.420;2024-01-10T14:22:59;10.52;;;3.47;;
79454;SDS011;68900;52.134;5.420;2024-01-10T14:25:26;8.95;;;3.25;;
79454;SDS011;68900;52.134;5.420;2024-01-10T14:27:54;7.28;;;3.00;;
79454;SDS011;68900;52.134;5.420;2024-01-10T14:30:20;7.75;;;3.00;;
79454;SDS011;68900;52.134;5.420;2024-01-10T14:32:47;7.05;;;2.83;;
79454;SDS011;68900;52.134;5.420;2024-01-10T14:35:14;9.32;;;3.17;;
79454;SDS011;68900;52.134;5.420;2024-01-10T14:37:42;8.20;;;2.90;;
79454;SDS011;68900;52.134;5.420;2024-01-10T14:40:09;9.63;;;3.17;;
79454;SDS011;68900;52.134;5.420;2024-01-10T14:42:36;8.98;;;3.88;;
79454;SDS011;68900;52.134;5.420;2024-01-10T14:45:03;7.93;;;3.20;;
79454;SDS011;68900;52.134;5.420;2024-01-10T14:47:30;8.52;;;2.75;;
79454;SDS011;68900;52.134;5.420;2024-01-10T14:50:03;6.90;;;3.20;;
79454;SDS011;68900;52.134;5.420;2024-01-10T14:52:31;9.07;;;3.25;;
79454;SDS011;68900;52.134;5.420;2024-01-10T14:55:00;9.02;;;3.67;;
79454;SDS011;68900;52.134;5.420;2024-01-10T14:57:29;8.55;;;3.30;;
79454;SDS011;68900;52.134;5.420;2024-01-10T15:00:02;8.32;;;3.15;;
79454;SDS011;68900;52.134;5.420;2024-01-10T15:02:29;8.38;;;3.45;;
79454;SDS011;68900;52.134;5.420;2024-01-10T15:04:56;6.93;;;3.20;;
79454;SDS011;68900;52.134;5.420;2024-01-10T15:07:26;8.02;;;3.17;;
79454;SDS011;68900;52.134;5.420;2024-01-10T15:09:52;8.73;;;3.45;;
79454;SDS011;68900;52.134;5.420;2024-01-10T15:12:19;8.93;;;3.05;;
79454;SDS011;68900;52.134;5.420;2024-01-10T15:14:45;7.25;;;3.10;;
79454;SDS011;68900;52.134;5.420;2024-01-10T15:17:12;8.77;;;2.88;;
79454;SDS011;68900;52.134;5.420;2024-01-10T15:19:39;8.82;;;3.50;;
79454;SDS011;68900;52.134;5.420;2024-01-10T15:22:07;7.63;;;3.22;;
79454;SDS011;68900;52.134;5.420;2024-01-10T15:24:34;6.38;;;2.45;;
79454;SDS011;68900;52.134;5.420;2024-01-10T15:27:01;7.07;;;3.25;;
79454;SDS011;68900;52.134;5.420;2024-01-10T15:29:32;7.65;;;3.20;;
79454;SDS011;68900;52.134;5.420;2024-01-10T15:31:59;7.25;;;2.78;;
79454;SDS011;68900;52.134;5.420;2024-01-10T15:34:26;7.43;;;3.00;;